createdAt,value
2019-01-18T00:02:00.098Z,2.30
2019-01-18T00:04:30.709Z,2.35
2019-01-18T00:07:01.334Z,2.10
2019-01-18T00:09:31.674Z,2.60
2019-01-18T00:12:02.141Z,2.10
2019-01-18T00:14:32.352Z,2.27
2019-01-18T00:17:02.466Z,1.77
2019-01-18T00:19:48.320Z,2.50
2019-01-18T00:22:18.635Z,3.22
2019-01-18T00:24:48.761Z,1.73
2019-01-18T00:27:18.820Z,2.30
2019-01-18T00:29:49.177Z,1.93
2019-01-18T00:32:19.569Z,1.72
2019-01-18T00:34:50.284Z,1.77
2019-01-18T00:37:20.669Z,2.40
2019-01-18T00:39:50.860Z,1.62
2019-01-18T00:42:21.121Z,2.53
2019-01-18T00:44:51.442Z,2.20
2019-01-18T00:47:22.156Z,1.80
2019-01-18T00:49:52.457Z,2.27
2019-01-18T00:52:22.925Z,1.50
2019-01-18T00:54:53.290Z,2.00
2019-01-18T00:57:23.886Z,1.80
2019-01-18T00:59:54.217Z,2.10
2019-01-18T01:02:24.378Z,2.58
2019-01-18T01:04:54.969Z,1.67
2019-01-18T01:07:25.320Z,1.82
2019-01-18T01:09:55.392Z,1.42
2019-01-18T01:12:26.100Z,1.20
2019-01-18T01:14:56.445Z,1.82
2019-01-18T01:17:26.633Z,1.47
2019-01-18T01:19:56.943Z,1.67
2019-01-18T01:22:27.477Z,2.35
2019-01-18T01:24:57.783Z,1.70
2019-01-18T01:27:27.962Z,2.63
2019-01-18T01:29:58.117Z,1.90
2019-01-18T01:32:28.728Z,2.70
2019-01-18T01:34:58.798Z,2.70
2019-01-18T01:37:28.922Z,2.57
2019-01-18T01:39:58.993Z,2.65
2019-01-18T01:42:29.110Z,3.25
2019-01-18T01:44:59.231Z,1.85
2019-01-18T01:47:29.657Z,2.60
2019-01-18T01:50:00.091Z,1.67
2019-01-18T01:52:31.864Z,1.07
2019-01-18T01:55:02.086Z,0.70
2019-01-18T01:57:32.208Z,0.85
2019-01-18T02:00:02.807Z,1.27
2019-01-18T02:02:39.749Z,1.07
2019-01-18T02:05:10.033Z,0.90
2019-01-18T02:07:40.161Z,0.80
2019-01-18T02:10:12.456Z,0.70
2019-01-18T02:12:42.571Z,0.70
2019-01-18T02:15:15.249Z,0.80
2019-01-18T02:17:45.608Z,0.75
2019-01-18T02:20:17.749Z,0.70
2019-01-18T02:22:48.689Z,0.75
2019-01-18T02:25:19.160Z,0.62
2019-01-18T02:27:49.317Z,0.90
2019-01-18T02:30:24.923Z,0.50
2019-01-18T02:32:55.454Z,0.80
2019-01-18T02:35:25.887Z,0.90
2019-01-18T02:37:55.997Z,0.90
2019-01-18T02:40:26.485Z,0.70
2019-01-18T02:42:56.877Z,0.70
2019-01-18T02:45:41.428Z,1.00
2019-01-18T02:48:11.780Z,1.02
2019-01-18T02:50:42.116Z,1.07
2019-01-18T02:53:13.455Z,0.95
2019-01-18T02:55:43.779Z,1.70
2019-01-18T02:58:14.681Z,1.10
2019-01-18T03:00:44.749Z,0.72
2019-01-18T03:03:15.109Z,0.93
2019-01-18T03:05:45.560Z,1.25
2019-01-18T03:08:15.628Z,0.90
2019-01-18T03:10:45.753Z,0.80
2019-01-18T03:13:16.071Z,0.80
2019-01-18T03:15:46.184Z,0.95
2019-01-18T03:18:16.514Z,1.00
2019-01-18T03:20:47.134Z,0.98
2019-01-18T03:23:17.953Z,0.80
2019-01-18T03:25:53.548Z,0.70
2019-01-18T03:28:23.689Z,0.98
2019-01-18T03:30:54.239Z,0.90
2019-01-18T03:33:24.789Z,0.60
2019-01-18T03:35:54.877Z,0.80
2019-01-18T03:38:36.953Z,1.05
2019-01-18T03:41:07.590Z,1.00
2019-01-18T03:43:38.222Z,0.65
2019-01-18T03:46:09.431Z,0.65
2019-01-18T03:48:40.089Z,0.60
2019-01-18T03:51:10.500Z,0.60
2019-01-18T03:53:41.075Z,0.70
2019-01-18T03:56:11.388Z,0.75
2019-01-18T03:58:41.825Z,0.60
2019-01-18T04:01:11.880Z,0.70
2019-01-18T04:03:42.508Z,0.80
2019-01-18T04:06:12.672Z,0.80
2019-01-18T04:08:51.110Z,0.70
2019-01-18T04:11:21.639Z,0.80
2019-01-18T04:13:51.837Z,0.98
2019-01-18T04:16:23.057Z,0.70
2019-01-18T04:18:53.889Z,0.78
2019-01-18T04:21:24.214Z,0.80
2019-01-18T04:23:54.866Z,0.47
2019-01-18T04:26:25.164Z,0.60
2019-01-18T04:28:55.669Z,0.70
2019-01-18T04:31:25.802Z,0.60
2019-01-18T04:34:03.302Z,0.80
2019-01-18T04:36:33.829Z,0.70
2019-01-18T04:39:06.011Z,0.42
2019-01-18T04:41:36.330Z,0.70
2019-01-18T04:44:06.682Z,0.68
2019-01-18T04:46:36.794Z,0.65
2019-01-18T04:49:07.443Z,0.60
2019-01-18T04:51:37.973Z,0.60
2019-01-18T04:54:08.085Z,0.60
2019-01-18T04:56:38.137Z,0.60
2019-01-18T04:59:08.290Z,0.50
2019-01-18T05:01:38.329Z,0.50
2019-01-18T05:04:08.442Z,0.60
2019-01-18T05:06:38.500Z,0.50
2019-01-18T05:09:08.605Z,0.60
2019-01-18T05:11:38.902Z,0.70
2019-01-18T05:14:09.730Z,0.70
2019-01-18T05:16:40.920Z,0.57
2019-01-18T05:19:11.521Z,0.75
2019-01-18T05:21:50.030Z,0.90
2019-01-18T05:24:20.393Z,0.70
2019-01-18T05:26:50.942Z,0.60
2019-01-18T05:29:21.744Z,0.50
2019-01-18T05:31:52.527Z,0.60
2019-01-18T05:34:23.673Z,0.65
2019-01-18T05:36:53.755Z,0.68
2019-01-18T05:39:24.100Z,0.60
2019-01-18T05:41:54.645Z,0.70
2019-01-18T05:44:25.389Z,0.50
2019-01-18T05:46:56.005Z,1.30
2019-01-18T05:49:26.619Z,0.50
2019-01-18T05:51:56.931Z,0.90
2019-01-18T05:54:27.741Z,0.60
2019-01-18T05:56:57.849Z,0.60
2019-01-18T05:59:28.149Z,0.60
2019-01-18T06:01:58.668Z,0.70
2019-01-18T06:04:28.969Z,0.80
2019-01-18T06:06:59.129Z,0.80
2019-01-18T06:09:29.454Z,0.72
2019-01-18T06:11:59.886Z,0.60
2019-01-18T06:14:29.937Z,0.60
2019-01-18T06:17:00.289Z,0.50
2019-01-18T06:19:30.590Z,0.60
2019-01-18T06:22:00.696Z,0.60
2019-01-18T06:24:30.973Z,0.50
2019-01-18T06:27:01.313Z,0.57
2019-01-18T06:29:31.845Z,0.82
2019-01-18T06:32:02.200Z,0.98
2019-01-18T06:34:32.886Z,0.70
2019-01-18T06:37:03.304Z,0.50
2019-01-18T06:39:33.849Z,0.72
2019-01-18T06:42:04.113Z,0.55
2019-01-18T06:44:34.256Z,0.80
2019-01-18T06:47:04.416Z,0.60
2019-01-18T06:49:34.746Z,0.70
2019-01-18T06:52:05.223Z,0.60
2019-01-18T06:54:35.504Z,1.17
2019-01-18T06:57:05.875Z,0.70
2019-01-18T06:59:35.952Z,0.80
2019-01-18T07:02:07.161Z,0.60
2019-01-18T07:04:41.519Z,1.07
2019-01-18T07:07:09.822Z,0.80
2019-01-18T07:09:39.919Z,0.80
2019-01-18T07:12:10.284Z,0.50
2019-01-18T07:14:40.572Z,0.60
2019-01-18T07:17:11.185Z,0.60
2019-01-18T07:19:41.486Z,0.60
2019-01-18T07:22:11.599Z,0.70
2019-01-18T07:24:41.907Z,0.45
2019-01-18T07:27:12.027Z,0.60
2019-01-18T07:29:42.328Z,0.78
2019-01-18T07:32:13.648Z,0.60
2019-01-18T07:34:45.006Z,0.60
2019-01-18T07:37:15.109Z,0.60
2019-01-18T07:39:45.640Z,0.60
2019-01-18T07:42:16.253Z,0.65
2019-01-18T07:44:46.562Z,0.50
2019-01-18T07:47:16.981Z,0.70
2019-01-18T07:49:47.269Z,0.80
2019-01-18T07:52:18.241Z,0.70
2019-01-18T07:54:48.549Z,0.70
2019-01-18T07:57:18.881Z,0.70
2019-01-18T07:59:49.169Z,0.60
2019-01-18T08:02:19.276Z,0.70
2019-01-18T08:04:49.332Z,0.60
2019-01-18T08:07:19.602Z,0.88
2019-01-18T08:09:49.673Z,1.17
2019-01-18T08:12:19.792Z,1.90
2019-01-18T08:14:49.852Z,0.60
2019-01-18T08:17:32.093Z,0.98
2019-01-18T08:20:02.641Z,0.60
2019-01-18T08:22:33.194Z,0.65
2019-01-18T08:25:03.401Z,0.70
2019-01-18T08:27:33.997Z,0.60
2019-01-18T08:30:05.889Z,0.40
2019-01-18T08:32:36.252Z,0.60
2019-01-18T08:35:06.695Z,0.70
2019-01-18T08:37:37.323Z,1.37
2019-01-18T08:40:10.174Z,0.65
2019-01-18T08:42:40.962Z,0.50
2019-01-18T08:45:14.641Z,1.00
2019-01-18T08:47:45.045Z,0.65
2019-01-18T08:50:16.333Z,0.70
2019-01-18T08:52:46.629Z,0.50
2019-01-18T08:55:17.324Z,1.07
2019-01-18T08:57:47.395Z,0.80
2019-01-18T09:00:19.276Z,0.72
2019-01-18T09:02:49.593Z,0.50
2019-01-18T09:05:22.050Z,0.75
2019-01-18T09:07:52.356Z,0.50
2019-01-18T09:10:23.823Z,0.90
2019-01-18T09:12:54.095Z,0.50
2019-01-18T09:15:25.553Z,0.70
2019-01-18T09:17:55.675Z,0.60
2019-01-18T09:20:27.279Z,0.70
2019-01-18T09:22:57.623Z,0.50
2019-01-18T09:25:28.014Z,0.50
2019-01-18T09:27:58.302Z,0.50
2019-01-18T09:30:32.436Z,0.50
2019-01-18T09:33:04.418Z,0.45
2019-01-18T09:35:35.105Z,0.50
2019-01-18T09:38:07.975Z,0.60
2019-01-18T09:40:38.393Z,0.60
2019-01-18T09:43:08.833Z,0.70
2019-01-18T09:45:39.278Z,0.60
2019-01-18T09:48:10.414Z,0.53
2019-01-18T09:50:40.673Z,0.50
2019-01-18T09:53:11.533Z,0.50
2019-01-18T09:55:42.336Z,0.40
2019-01-18T09:58:12.404Z,0.62
2019-01-18T10:00:42.848Z,0.50
2019-01-18T10:03:13.207Z,0.50
2019-01-18T10:05:43.667Z,0.55
2019-01-18T10:08:14.016Z,0.60
2019-01-18T10:10:44.069Z,0.50
2019-01-18T10:13:14.181Z,0.50
2019-01-18T10:15:45.896Z,0.60
2019-01-18T10:18:16.399Z,0.65
2019-01-18T10:20:46.704Z,0.70
2019-01-18T10:23:17.272Z,0.60
2019-01-18T10:25:47.340Z,0.60
2019-01-18T10:28:17.676Z,0.60
2019-01-18T10:30:47.729Z,0.62
2019-01-18T10:33:17.847Z,0.70
2019-01-18T10:35:48.464Z,0.62
2019-01-18T10:38:18.894Z,0.50
2019-01-18T10:40:49.194Z,0.60
2019-01-18T10:43:19.301Z,0.70
2019-01-18T10:45:49.358Z,0.70
2019-01-18T10:48:19.936Z,0.50
2019-01-18T10:50:50.469Z,0.80
2019-01-18T10:53:20.569Z,1.32
2019-01-18T10:55:50.674Z,0.65
2019-01-18T10:58:20.978Z,0.60
2019-01-18T11:00:51.552Z,0.70
2019-01-18T11:03:21.878Z,0.50
2019-01-18T11:05:52.485Z,1.00
2019-01-18T11:08:23.084Z,0.60
2019-01-18T11:10:54.049Z,1.42
2019-01-18T11:13:24.591Z,0.60
2019-01-18T11:15:54.934Z,0.70
2019-01-18T11:18:26.001Z,0.65
2019-01-18T11:21:08.552Z,0.60
2019-01-18T11:23:39.097Z,0.90
2019-01-18T11:26:09.287Z,1.27
2019-01-18T11:28:39.572Z,1.00
2019-01-18T11:31:09.932Z,0.88
2019-01-18T11:33:40.189Z,1.02
2019-01-18T11:36:10.632Z,0.80
2019-01-18T11:38:40.989Z,0.90
2019-01-18T11:41:11.375Z,1.32
2019-01-18T11:43:41.473Z,0.90
2019-01-18T11:46:11.517Z,1.10
2019-01-18T11:48:41.616Z,1.15
2019-01-18T11:51:11.661Z,1.00
2019-01-18T11:53:41.761Z,0.70
2019-01-18T11:56:12.329Z,0.87
2019-01-18T11:58:42.644Z,1.10
2019-01-18T12:01:12.764Z,0.70
2019-01-18T12:03:43.145Z,1.17
2019-01-18T12:06:13.558Z,0.80
2019-01-18T12:08:44.047Z,0.78
2019-01-18T12:11:14.546Z,0.70
2019-01-18T12:13:45.072Z,0.85
2019-01-18T12:16:15.430Z,0.80
2019-01-18T12:18:45.771Z,0.70
2019-01-18T12:21:15.844Z,0.83
2019-01-18T12:23:46.268Z,0.83
2019-01-18T12:26:16.564Z,0.80
2019-01-18T12:28:46.912Z,0.97
2019-01-18T12:31:17.524Z,0.83
2019-01-18T12:33:47.849Z,0.75
2019-01-18T12:36:18.199Z,1.15
2019-01-18T12:38:48.555Z,0.95
2019-01-18T12:41:19.380Z,1.00
2019-01-18T12:43:49.929Z,0.70
2019-01-18T12:46:20.591Z,0.70
2019-01-18T12:48:50.909Z,1.17
2019-01-18T12:51:21.341Z,0.90
2019-01-18T12:53:51.392Z,1.57
2019-01-18T12:56:21.803Z,0.95
2019-01-18T12:58:56.465Z,0.90
2019-01-18T13:01:23.909Z,0.90
2019-01-18T13:03:54.208Z,0.95
2019-01-18T13:06:24.514Z,0.78
2019-01-18T13:08:54.906Z,1.27
2019-01-18T13:11:25.033Z,1.17
2019-01-18T13:13:55.636Z,1.40
2019-01-18T13:16:30.511Z,1.10
2019-01-18T13:19:04.203Z,1.20
2019-01-18T13:21:34.464Z,1.20
2019-01-18T13:24:04.529Z,1.10
2019-01-18T13:26:34.781Z,1.03
2019-01-18T13:29:04.909Z,1.17
2019-01-18T13:31:34.960Z,1.27
2019-01-18T13:34:05.425Z,1.33
2019-01-18T13:36:35.559Z,0.72
2019-01-18T13:39:08.837Z,0.93
2019-01-18T13:41:39.586Z,0.80
2019-01-18T13:44:10.101Z,1.00
2019-01-18T13:46:40.460Z,1.10
2019-01-18T13:49:10.810Z,0.93
2019-01-18T13:51:40.860Z,0.90
2019-01-18T13:54:11.234Z,0.73
2019-01-18T13:56:41.853Z,0.80
2019-01-18T13:59:11.910Z,1.80
2019-01-18T14:01:42.220Z,0.80
2019-01-18T14:04:12.596Z,0.63
2019-01-18T14:06:42.878Z,0.82
2019-01-18T14:09:13.064Z,0.95
2019-01-18T14:11:44.507Z,0.60
2019-01-18T14:14:15.113Z,0.65
2019-01-18T14:16:46.233Z,0.70
2019-01-18T14:19:16.688Z,0.80
2019-01-18T14:21:48.061Z,0.80
2019-01-18T14:24:22.708Z,0.70
2019-01-18T14:26:56.089Z,0.82
2019-01-18T14:29:27.207Z,1.42
2019-01-18T14:31:58.557Z,0.60
2019-01-18T14:34:29.228Z,0.70
2019-01-18T14:37:00.015Z,1.15
2019-01-18T14:39:30.420Z,0.95
2019-01-18T14:42:01.229Z,0.90
2019-01-18T14:44:31.685Z,0.90
2019-01-18T14:47:02.344Z,0.80
2019-01-18T14:49:32.889Z,0.97
2019-01-18T14:52:03.107Z,0.93
2019-01-18T14:54:35.433Z,1.10
2019-01-18T14:57:06.019Z,1.37
2019-01-18T14:59:36.410Z,1.57
2019-01-18T15:02:07.086Z,2.30
2019-01-18T15:04:37.140Z,0.80
2019-01-18T15:07:07.333Z,1.27
2019-01-18T15:09:37.700Z,1.95
2019-01-18T15:12:07.744Z,1.10
2019-01-18T15:14:39.444Z,1.25
2019-01-18T15:17:09.697Z,1.02
2019-01-18T15:19:39.956Z,2.33
2019-01-18T15:22:10.347Z,2.75
2019-01-18T15:24:40.960Z,2.30
2019-01-18T15:27:11.014Z,1.65
2019-01-18T15:29:41.563Z,1.22
2019-01-18T15:32:11.961Z,1.77
2019-01-18T15:34:42.151Z,2.00
2019-01-18T15:37:12.481Z,3.62
2019-01-18T15:39:42.585Z,4.75
2019-01-18T15:42:12.840Z,2.65
2019-01-18T15:44:44.225Z,1.25
2019-01-18T15:47:14.278Z,1.50
2019-01-18T15:49:44.869Z,2.70
2019-01-18T15:52:15.181Z,1.62
2019-01-18T15:54:45.237Z,1.95
2019-01-18T15:57:16.062Z,0.88
2019-01-18T15:59:46.381Z,1.02
2019-01-18T16:02:16.875Z,1.10
2019-01-18T16:04:46.956Z,1.65
2019-01-18T16:07:17.059Z,0.90
2019-01-18T16:09:47.406Z,2.15
2019-01-18T16:12:18.433Z,1.15
2019-01-18T16:14:49.025Z,2.20
2019-01-18T16:17:24.340Z,2.02
2019-01-18T16:19:54.461Z,1.47
2019-01-18T16:22:25.013Z,0.90
2019-01-18T16:24:55.122Z,0.90
2019-01-18T16:27:25.449Z,0.80
2019-01-18T16:29:55.563Z,0.70
2019-01-18T16:32:25.898Z,0.72
2019-01-18T16:34:56.397Z,1.22
2019-01-18T16:37:26.452Z,1.00
2019-01-18T16:39:56.825Z,0.70
2019-01-18T16:42:27.153Z,1.00
2019-01-18T16:44:57.275Z,0.70
2019-01-18T16:47:27.605Z,0.90
2019-01-18T16:49:58.105Z,0.80
2019-01-18T16:52:28.254Z,1.00
2019-01-18T16:54:58.544Z,1.12
2019-01-18T16:57:28.640Z,1.27
2019-01-18T16:59:58.961Z,0.82
2019-01-18T17:02:29.440Z,0.88
2019-01-18T17:04:59.488Z,1.10
2019-01-18T17:07:29.613Z,0.68
2019-01-18T17:09:59.940Z,1.10
2019-01-18T17:12:30.324Z,1.00
2019-01-18T17:15:00.364Z,0.90
2019-01-18T17:17:30.728Z,1.00
2019-01-18T17:20:00.780Z,0.70
2019-01-18T17:22:31.128Z,1.67
2019-01-18T17:25:01.176Z,0.80
2019-01-18T17:27:31.541Z,1.70
2019-01-18T17:30:01.590Z,0.90
2019-01-18T17:32:33.053Z,0.80
2019-01-18T17:35:03.281Z,0.70
2019-01-18T17:37:37.545Z,1.32
2019-01-18T17:40:12.626Z,0.88
2019-01-18T17:43:30.843Z,1.10
2019-01-18T17:46:37.946Z,1.30
2019-01-18T17:49:49.145Z,1.15
2019-01-18T17:52:44.356Z,1.10
2019-01-18T17:55:55.585Z,1.00
2019-01-18T17:58:49.926Z,0.90
2019-01-18T18:01:49.857Z,0.90
2019-01-18T18:04:48.473Z,0.80
2019-01-18T18:07:49.102Z,1.12
2019-01-18T18:10:41.666Z,1.10
2019-01-18T18:13:36.630Z,1.27
2019-01-18T18:16:28.002Z,2.70
2019-01-18T18:19:28.824Z,1.32
2019-01-18T18:22:32.902Z,1.37
2019-01-18T18:25:32.764Z,1.02
2019-01-18T18:28:38.652Z,1.60
2019-01-18T18:31:28.852Z,0.70
2019-01-18T18:34:35.058Z,1.00
2019-01-18T18:37:33.766Z,1.15
2019-01-18T18:40:15.422Z,1.10
2019-01-18T18:43:10.402Z,1.10
2019-01-18T18:45:57.967Z,2.10
2019-01-18T18:49:08.430Z,1.00
2019-01-18T18:52:16.772Z,1.65
2019-01-18T18:55:24.808Z,1.02
2019-01-18T18:58:51.353Z,1.20
2019-01-18T19:01:59.310Z,1.22
2019-01-18T19:04:59.481Z,1.60
2019-01-18T19:07:55.524Z,1.20
2019-01-18T19:10:51.193Z,1.07
2019-01-18T19:13:54.489Z,2.45
2019-01-18T19:16:41.115Z,1.22
2019-01-18T19:19:49.565Z,1.12
2019-01-18T19:23:18.163Z,1.20
2019-01-18T19:26:37.895Z,1.52
2019-01-18T19:29:49.494Z,1.00
2019-01-18T19:32:59.858Z,1.30
2019-01-18T19:36:04.886Z,1.72
2019-01-18T19:39:29.743Z,1.42
2019-01-18T19:42:19.933Z,1.40
2019-01-18T19:45:29.218Z,1.80
2019-01-18T19:48:28.354Z,1.62
2019-01-18T19:51:30.744Z,1.20
2019-01-18T19:54:29.672Z,1.20
2019-01-18T19:57:33.293Z,1.52
2019-01-18T20:00:51.264Z,1.50
2019-01-18T20:04:16.256Z,1.00
2019-01-18T20:07:25.443Z,1.20
2019-01-18T20:10:28.729Z,2.00
2019-01-18T20:13:55.798Z,1.40
2019-01-18T20:16:45.689Z,1.55
2019-01-18T20:19:52.220Z,1.82
2019-01-18T20:23:10.202Z,1.50
2019-01-18T20:26:08.605Z,1.87
2019-01-18T20:29:21.854Z,1.92
2019-01-18T20:32:03.134Z,1.85
2019-01-18T20:35:22.927Z,2.00
2019-01-18T20:38:18.413Z,2.20
2019-01-18T20:41:04.685Z,1.80
2019-01-18T20:44:18.460Z,2.00
2019-01-18T20:47:12.588Z,2.77
2019-01-18T20:50:23.973Z,2.80
2019-01-18T20:53:31.497Z,3.25
2019-01-18T20:56:37.036Z,2.52
2019-01-18T20:59:18.535Z,2.15
2019-01-18T21:02:10.835Z,3.10
2019-01-18T21:05:08.945Z,3.05
2019-01-18T21:08:09.706Z,2.55
2019-01-18T21:11:25.779Z,2.55
2019-01-18T21:14:31.539Z,2.47
2019-01-18T21:17:58.034Z,3.95
2019-01-18T21:21:00.333Z,3.73
2019-01-18T21:24:21.270Z,3.77
2019-01-18T21:27:32.631Z,3.35
2019-01-18T21:30:24.617Z,3.30
2019-01-18T21:33:20.741Z,3.00
2019-01-18T21:36:37.213Z,3.65
2019-01-18T21:39:49.085Z,3.50
2019-01-18T21:42:50.238Z,3.95
2019-01-18T21:45:47.270Z,2.77
2019-01-18T21:48:39.186Z,2.00
2019-01-18T21:51:34.455Z,3.25
2019-01-18T21:54:14.543Z,3.75
2019-01-18T21:57:19.273Z,4.17
2019-01-18T22:00:08.676Z,3.95
2019-01-18T22:02:52.269Z,3.85
2019-01-18T22:05:49.324Z,3.83
2019-01-18T22:08:49.242Z,3.87
2019-01-18T22:11:28.697Z,4.10
2019-01-18T22:14:24.165Z,4.42
2019-01-18T22:17:07.021Z,3.92
2019-01-18T22:20:09.016Z,3.47
2019-01-18T22:22:48.584Z,4.05
2019-01-18T22:25:53.433Z,3.58
2019-01-18T22:29:06.874Z,3.80
2019-01-18T22:32:06.760Z,4.12
2019-01-18T22:35:01.781Z,2.72
2019-01-18T22:38:04.337Z,2.58
2019-01-18T22:41:11.285Z,3.37
2019-01-18T22:44:06.742Z,2.77
2019-01-18T22:47:03.576Z,3.75
2019-01-18T22:49:56.093Z,2.33
2019-01-18T22:53:07.502Z,2.60
2019-01-18T22:56:00.096Z,3.02
2019-01-18T22:59:20.625Z,2.77
2019-01-18T23:02:00.533Z,2.83
2019-01-18T23:05:02.877Z,2.60
2019-01-18T23:07:58.010Z,3.80
2019-01-18T23:10:57.856Z,3.90
2019-01-18T23:13:56.470Z,3.80
2019-01-18T23:16:59.043Z,4.37
2019-01-18T23:19:56.184Z,5.22
2019-01-18T23:22:48.879Z,4.47
2019-01-18T23:25:48.905Z,3.83
2019-01-18T23:28:44.164Z,3.75
2019-01-18T23:31:46.360Z,4.22
2019-01-18T23:34:53.229Z,4.40
2019-01-18T23:38:08.253Z,3.80
2019-01-18T23:41:01.257Z,4.15
2019-01-18T23:44:08.745Z,4.80
2019-01-18T23:47:04.322Z,3.45
2019-01-18T23:49:51.848Z,4.33
2019-01-18T23:52:52.408Z,3.83
2019-01-18T23:56:02.109Z,4.62
2019-01-18T23:59:10.780Z,2.75
